Hilde A — TCXV7 — position and weather

sailwx.info

Track history (hours):
 
Tides and Currents Weather Stations Pressure Air Temp Water Temp Dewpoint Dewpoint Depression Visibility Wind Speed Wind Dir Waves Ship Positions

Hilde A

Last reported at 2018-Jul-20 11:56 UTC. Time now 2018-Jul-20 12:16 UTC.
Position N 39°44' E 025°51'.

Length 184 m; draft 8.7 m.

Type: Ship. MMSI: 271040403.

Date/timePositionNaut miles runAvg speedWind from/ knotsBaromVisibWave heightAir tempDewpointWater temp
2018-Jul-20 11:56N 39°44' E 025°51'710.5
2018-Jul-20 11:15N 39°51' E 025°52'810.9
2018-Jul-20 10:33N 39°58' E 025°56'310.6
2018-Jul-20 10:18N 39°60' E 025°59'  
2018-Jul-18 00:28N 39°51' E 025°52'6912.3
2018-Jul-17 18:52N 38°50' E 025°12'513.2
2018-Jul-17 18:28N 38°45' E 025°09'613.0
2018-Jul-17 18:00N 38°40' E 025°05'2313.1
2018-Jul-17 16:14N 38°19' E 024°52'414.0
2018-Jul-17 15:59N 38°16' E 024°50'714.9
2018-Jul-17 15:30N 38°10' E 024°46'4413.7
2018-Jul-17 12:19N 37°37' E 024°09'413.5
2018-Jul-17 12:00N 37°35' E 024°05'713.7
2018-Jul-17 11:30N 37°36' E 023°56'713.2
2018-Jul-17 11:00N 37°37' E 023°48'612.8
2018-Jul-17 10:30N 37°41' E 023°41'713.2
2018-Jul-17 10:00N 37°47' E 023°38'612.7
2018-Jul-17 09:30N 37°53' E 023°37'4 8.3
2018-Jul-17 09:00N 37°57' E 023°36'0 0.4
2018-Jul-17 08:29N 37°57' E 023°36'0 0.0
2018-Jul-17 07:58N 37°57' E 023°36'0 0.0
2018-Jul-17 07:25N 37°57' E 023°36'0 0.0
2018-Jul-17 06:58N 37°57' E 023°36'0 0.0
2018-Jul-17 06:28N 37°57' E 023°36'0 0.0
2018-Jul-17 06:00N 37°57' E 023°36'0 0.0
2018-Jul-17 05:12N 37°57' E 023°36'0 0.0
2018-Jul-17 04:57N 37°57' E 023°36'0 0.0
2018-Jul-17 04:30N 37°57' E 023°36'0 0.0
2018-Jul-17 03:41N 37°57' E 023°36'0 0.0
2018-Jul-17 03:29N 37°57' E 023°36'0 0.0
2018-Jul-17 02:53N 37°57' E 023°36'0 0.0
2018-Jul-17 02:29N 37°57' E 023°36'0 0.0
2018-Jul-17 01:59N 37°57' E 023°36'0 0.0
2018-Jul-17 01:28N 37°57' E 023°36'0 0.0
2018-Jul-17 00:58N 37°57' E 023°36'0 0.0
2018-Jul-17 00:28N 37°57' E 023°36'0 0.0
2018-Jul-16 23:28N 37°57' E 023°36'0 0.0
2018-Jul-16 22:48N 37°57' E 023°36'0 0.0
2018-Jul-16 22:30N 37°57' E 023°36'0 0.0
2018-Jul-16 21:57N 37°57' E 023°36'0 0.0
2018-Jul-16 21:27N 37°57' E 023°36'0 0.0
2018-Jul-16 21:00N 37°57' E 023°36'0 0.0
2018-Jul-16 20:29N 37°57' E 023°36'0 0.0
2018-Jul-16 19:59N 37°57' E 023°36'0 0.0
2018-Jul-16 19:29N 37°57' E 023°36'0 0.0
2018-Jul-16 18:59N 37°57' E 023°36'0 0.0
2018-Jul-16 18:28N 37°57' E 023°36'0 0.0
2018-Jul-16 17:58N 37°57' E 023°36'0 0.0
2018-Jul-16 17:28N 37°57' E 023°36'0 0.0
2018-Jul-16 16:58N 37°57' E 023°36'0 0.0
2018-Jul-16 16:28N 37°57' E 023°36'0 0.0
2018-Jul-16 16:00N 37°57' E 023°36'0 0.0
2018-Jul-16 15:30N 37°57' E 023°36'0 0.0
2018-Jul-16 15:00N 37°57' E 023°36'0 0.0
2018-Jul-16 14:30N 37°57' E 023°36'0 0.0
2018-Jul-16 13:56N 37°57' E 023°36'0 0.0
2018-Jul-16 13:29N 37°57' E 023°36'0 0.0
2018-Jul-16 12:59N 37°57' E 023°36'0 0.0
2018-Jul-16 12:30N 37°57' E 023°36'0 0.0
2018-Jul-16 11:59N 37°57' E 023°36'0 0.0
2018-Jul-16 11:30N 37°57' E 023°36'0 0.0
2018-Jul-16 10:58N 37°57' E 023°36'0 0.0
2018-Jul-16 10:31N 37°57' E 023°36'0 0.0
2018-Jul-16 09:58N 37°57' E 023°36'0 0.0
2018-Jul-16 09:28N 37°57' E 023°36'0 0.0
2018-Jul-16 09:00N 37°57' E 023°36'0 0.0
2018-Jul-16 08:30N 37°57' E 023°36'0 0.0
2018-Jul-16 08:00N 37°57' E 023°36'0 0.0
2018-Jul-16 07:30N 37°57' E 023°36'0 0.0
2018-Jul-16 06:59N 37°57' E 023°36'0 0.0
2018-Jul-16 06:29N 37°57' E 023°36'0 0.5
2018-Jul-16 06:00N 37°57' E 023°36'2 4.9
2018-Jul-16 05:31N 37°55' E 023°35'0 0.3
2018-Jul-16 05:00N 37°55' E 023°35'1 2.4
2018-Jul-16 04:31N 37°54' E 023°34'0 0.8
2018-Jul-16 04:01N 37°54' E 023°33'1 2.3
2018-Jul-16 03:31N 37°53' E 023°32'0 0.1
2018-Jul-16 02:59N 37°53' E 023°32'0 0.0
2018-Jul-16 02:31N 37°53' E 023°32'0 0.0
2018-Jul-16 01:58N 37°53' E 023°32'0 0.0
2018-Jul-16 01:28N 37°53' E 023°32'0 0.0
2018-Jul-16 00:58N 37°53' E 023°32'0 0.0
2018-Jul-16 00:28N 37°53' E 023°32'0 0.1
2018-Jul-15 23:57N 37°53' E 023°32'0 0.0
2018-Jul-15 23:30N 37°53' E 023°32'0 0.0
2018-Jul-15 23:00N 37°53' E 023°32'0 0.0
2018-Jul-15 22:30N 37°53' E 023°32'0 0.0
2018-Jul-15 21:59N 37°53' E 023°32'0 0.0
2018-Jul-15 21:29N 37°53' E 023°32'0 0.0
2018-Jul-15 20:59N 37°53' E 023°32'0 0.0
2018-Jul-15 20:29N 37°53' E 023°32'0 0.0
2018-Jul-15 19:59N 37°53' E 023°32'0 0.0
2018-Jul-15 19:28N 37°53' E 023°32'0 0.0
2018-Jul-15 18:58N 37°53' E 023°32'0 0.0
2018-Jul-15 18:28N 37°53' E 023°32'0 0.0
2018-Jul-15 17:58N 37°53' E 023°32'1 1.4
2018-Jul-15 17:30N 37°53' E 023°33'4 8.7
2018-Jul-15 17:00N 37°52' E 023°38'612.7
2018-Jul-15 16:31N 37°46' E 023°42'612.2
2018-Jul-15 16:01N 37°41' E 023°45'612.6
2018-Jul-15 15:31N 37°35' E 023°44'713.9
2018-Jul-15 15:00N 37°28' E 023°42'714.0
2018-Jul-15 14:30N 37°21' E 023°39'713.6
2018-Jul-15 14:00N 37°15' E 023°35'813.2
2018-Jul-15 13:25N 37°09' E 023°30'813.2
2018-Jul-15 12:51N 37°02' E 023°26'413.1
2018-Jul-15 12:30N 36°58' E 023°23'35712.0
2018-Jul-14 06:51N 37°49' E 015°59'1713.3
2018-Jul-14 05:33N 37°54' E 015°38'113.4
2018-Jul-14 05:30N 37°55' E 015°37'712.8
2018-Jul-14 04:56N 38°02' E 015°34'613.3
2018-Jul-14 04:28N 38°08' E 015°35'612.9
2018-Jul-14 03:59N 38°14' E 015°36'612.1
2018-Jul-14 03:30N 38°19' E 015°40'712.9
2018-Jul-14 02:59N 38°25' E 015°37'611.7
2018-Jul-14 02:30N 38°30' E 015°34'612.2
2018-Jul-14 02:00N 38°36' E 015°31'7712.8
2018-Jul-13 20:00N 39°48' E 014°57'713.4
2018-Jul-13 19:30N 39°54' E 014°54'713.5
2018-Jul-13 18:58N 40°01' E 014°50'613.5
2018-Jul-13 18:30N 40°07' E 014°48'713.3
2018-Jul-13 18:00N 40°13' E 014°45'713.1
2018-Jul-13 17:30N 40°20' E 014°44'713.4
2018-Jul-13 17:00N 40°26' E 014°43'713.1
2018-Jul-13 16:30N 40°33' E 014°43'4 0.3
2018-Jul-13 05:03N 40°37' E 014°42'0 5.5
2018-Jul-13 05:00N 40°36' E 014°42'3 5.2
2018-Jul-13 04:30N 40°34' E 014°40'510.2
2018-Jul-13 04:00N 40°32' E 014°34'715.0
2018-Jul-13 03:30N 40°30' E 014°24'815.1
2018-Jul-13 03:00N 40°28' E 014°15'713.9
2018-Jul-13 02:29N 40°30' E 014°06'714.9
2018-Jul-13 02:00N 40°33' E 013°58'815.1
2018-Jul-13 01:30N 40°39' E 013°51'815.2
2018-Jul-13 01:00N 40°44' E 013°43'815.1
2018-Jul-13 00:30N 40°48' E 013°35'814.8
2018-Jul-12 23:59N 40°53' E 013°27'914.8
2018-Jul-12 23:20N 40°58' E 013°16'514.7
2018-Jul-12 23:00N 41°01' E 013°11'914.1
2018-Jul-12 22:22N 41°06' E 013°01'814.5
2018-Jul-12 21:49N 41°11' E 012°53'514.4
2018-Jul-12 21:26N 41°14' E 012°47'814.2
2018-Jul-12 20:52N 41°19' E 012°38'614.2
2018-Jul-12 20:25N 41°22' E 012°31'614.2
2018-Jul-12 19:58N 41°26' E 012°24'814.3
2018-Jul-12 19:23N 41°31' E 012°15'2014.4
2018-Jul-12 17:59N 41°43' E 011°53'5914.6
2018-Jul-12 13:58N 42°17' E 010°49'814.5
2018-Jul-12 13:24N 42°23' E 010°41'614.7
2018-Jul-12 13:01N 42°26' E 010°34'3613.9
2018-Jul-12 10:26N 42°51' E 010°00'714.2
2018-Jul-12 09:59N 42°58' E 009°60'714.3
2018-Jul-12 09:30N 43°04' E 009°59'714.1
2018-Jul-12 09:00N 43°10' E 009°54'714.2
2018-Jul-12 08:30N 43°17' E 009°50'714.2
2018-Jul-12 08:01N 43°23' E 009°45'713.7
2018-Jul-12 07:30N 43°30' E 009°45'714.1
2018-Jul-12 07:00N 43°37' E 009°47'714.2
2018-Jul-12 06:30N 43°44' E 009°48'714.0
2018-Jul-12 06:00N 43°51' E 009°50'713.2
2018-Jul-12 05:30N 43°57' E 009°51'612.9
2018-Jul-12 05:00N 44°04' E 009°52'3 5.3
2018-Jul-12 04:30N 44°06' E 009°51'0 0.0
2018-Jul-12 04:00N 44°06' E 009°51'0 0.0
2018-Jul-12 03:29N 44°06' E 009°51'0 0.0
2018-Jul-12 02:59N 44°06' E 009°51'0 0.0
2018-Jul-12 02:29N 44°06' E 009°51'0 0.0
2018-Jul-12 01:59N 44°06' E 009°51'0 0.0
2018-Jul-12 01:28N 44°06' E 009°51'0 0.0
2018-Jul-12 00:58N 44°06' E 009°51'0 0.0
2018-Jul-12 00:28N 44°06' E 009°51'0 0.0
2018-Jul-11 23:58N 44°06' E 009°51'0 0.0
2018-Jul-11 23:28N 44°06' E 009°51'0 0.0
2018-Jul-11 23:00N 44°06' E 009°51'0 0.0
2018-Jul-11 22:30N 44°06' E 009°51'0 0.0
2018-Jul-11 22:00N 44°06' E 009°51'0 0.0
2018-Jul-11 21:30N 44°06' E 009°51'0 0.0
2018-Jul-11 20:59N 44°06' E 009°51'0 0.0
2018-Jul-11 20:29N 44°06' E 009°51'0 0.0
2018-Jul-11 19:59N 44°06' E 009°51'0 0.0
2018-Jul-11 19:29N 44°06' E 009°51'0 0.0
2018-Jul-11 18:59N 44°06' E 009°51'0 0.0
2018-Jul-11 18:28N 44°06' E 009°51'0 0.0
2018-Jul-11 17:58N 44°06' E 009°51'0 0.0
2018-Jul-11 17:25N 44°06' E 009°51'0 0.0
2018-Jul-11 16:58N 44°06' E 009°51'0 0.0
2018-Jul-11 16:28N 44°06' E 009°51'0 0.0
2018-Jul-11 16:00N 44°06' E 009°51'0 0.0
2018-Jul-11 15:30N 44°06' E 009°51'0 0.0
2018-Jul-11 15:00N 44°06' E 009°51'0 0.0
2018-Jul-11 14:30N 44°06' E 009°51'0 0.0
2018-Jul-11 13:56N 44°06' E 009°51'0 0.0
2018-Jul-11 13:29N 44°06' E 009°51'0 0.0
2018-Jul-11 12:59N 44°06' E 009°51'0 0.0
2018-Jul-11 12:29N 44°06' E 009°51'0 0.0
2018-Jul-11 11:56N 44°06' E 009°51'0 0.0
2018-Jul-11 11:28N 44°06' E 009°51'0 0.0
2018-Jul-11 10:58N 44°06' E 009°51'0 0.0
2018-Jul-11 10:13N 44°06' E 009°51'0 0.0
2018-Jul-11 09:58N 44°06' E 009°51'0 0.1
2018-Jul-11 09:30N 44°06' E 009°51'2 4.8
2018-Jul-11 09:00N 44°04' E 009°51'4 8.3
2018-Jul-11 08:30N 43°60' E 009°53'612.3
2018-Jul-11 08:00N 44°00' E 009°45'713.1
2018-Jul-11 07:30N 44°03' E 009°36'713.1
2018-Jul-11 07:00N 44°06' E 009°29'612.9
2018-Jul-11 06:30N 44°10' E 009°21'612.9
2018-Jul-11 06:00N 44°13' E 009°14'612.7
2018-Jul-11 05:30N 44°16' E 009°06'612.8
2018-Jul-11 05:00N 44°20' E 008°58'5 9.6
2018-Jul-11 04:30N 44°24' E 008°55'1 2.7
2018-Jul-11 03:58N 44°24' E 008°53'0 0.0
2018-Jul-11 03:28N 44°24' E 008°53'0 0.0
2018-Jul-11 02:58N 44°24' E 008°53'0 0.0
2018-Jul-11 02:30N 44°24' E 008°53'0 0.0
2018-Jul-11 02:00N 44°24' E 008°53'0 0.0
2018-Jul-11 01:30N 44°24' E 008°53'0 0.0
2018-Jul-11 01:00N 44°24' E 008°53'0 0.0
2018-Jul-11 00:30N 44°24' E 008°53'0 0.0
2018-Jul-10 23:59N 44°24' E 008°53'0 0.0
2018-Jul-10 23:29N 44°24' E 008°53'0 0.0
2018-Jul-10 22:59N 44°24' E 008°53'0 0.0
2018-Jul-10 22:29N 44°24' E 008°53'0 0.0
2018-Jul-10 21:58N 44°24' E 008°53'0 0.0
2018-Jul-10 21:28N 44°24' E 008°53'0 0.0
2018-Jul-10 20:58N 44°24' E 008°53'0 0.0
2018-Jul-10 20:28N 44°24' E 008°53'0 0.0
2018-Jul-10 19:58N 44°24' E 008°53'0 0.0
2018-Jul-10 19:30N 44°24' E 008°53'0 0.0
2018-Jul-10 19:00N 44°24' E 008°53'0 0.0
2018-Jul-10 18:30N 44°24' E 008°53'0 0.0
2018-Jul-10 18:00N 44°24' E 008°53'0 0.0
2018-Jul-10 17:29N 44°24' E 008°53'0 0.0
2018-Jul-10 16:59N 44°24' E 008°53'0 0.0
2018-Jul-10 16:29N 44°24' E 008°53'0 0.0
2018-Jul-10 15:59N 44°24' E 008°53'0 0.0
2018-Jul-10 15:29N 44°24' E 008°53'0 0.0
2018-Jul-10 14:58N 44°24' E 008°53'0 0.0
2018-Jul-10 14:28N 44°24' E 008°53'0 0.0
2018-Jul-10 13:58N 44°24' E 008°53'0 0.0
2018-Jul-10 13:28N 44°24' E 008°53'0 0.0
2018-Jul-10 12:58N 44°24' E 008°53'0 0.0
2018-Jul-10 12:30N 44°24' E 008°53'0 0.0
2018-Jul-10 12:00N 44°24' E 008°53'  
Track history (hours):
 
Tides and Currents Weather Stations Pressure Air Temp Water Temp Dewpoint Dewpoint Depression Visibility Wind Speed Wind Dir Waves Ship Positions

Hilde A

Last reported at 2018-Jul-20 11:56 UTC. Time now 2018-Jul-20 12:16 UTC.
Position N 39°44' E 025°51'.

Length 184 m; draft 8.7 m.

Type: Ship. MMSI: 271040403.

Date/timePositionNaut miles runAvg speedWind from/ knotsBaromVisibWave heightAir tempDewpointWater temp
2018-Jul-20 11:56N 39°44' E 025°51'710.5
2018-Jul-20 11:15N 39°51' E 025°52'810.9
2018-Jul-20 10:33N 39°58' E 025°56'310.6
2018-Jul-20 10:18N 39°60' E 025°59'  
2018-Jul-18 00:28N 39°51' E 025°52'6912.3
2018-Jul-17 18:52N 38°50' E 025°12'513.2
2018-Jul-17 18:28N 38°45' E 025°09'613.0
2018-Jul-17 18:00N 38°40' E 025°05'2313.1
2018-Jul-17 16:14N 38°19' E 024°52'414.0
2018-Jul-17 15:59N 38°16' E 024°50'714.9
2018-Jul-17 15:30N 38°10' E 024°46'4413.7
2018-Jul-17 12:19N 37°37' E 024°09'413.5
2018-Jul-17 12:00N 37°35' E 024°05'713.7
2018-Jul-17 11:30N 37°36' E 023°56'713.2
2018-Jul-17 11:00N 37°37' E 023°48'612.8
2018-Jul-17 10:30N 37°41' E 023°41'713.2
2018-Jul-17 10:00N 37°47' E 023°38'612.7
2018-Jul-17 09:30N 37°53' E 023°37'4 8.3
2018-Jul-17 09:00N 37°57' E 023°36'0 0.4
2018-Jul-17 08:29N 37°57' E 023°36'0 0.0
2018-Jul-17 07:58N 37°57' E 023°36'0 0.0
2018-Jul-17 07:25N 37°57' E 023°36'0 0.0
2018-Jul-17 06:58N 37°57' E 023°36'0 0.0
2018-Jul-17 06:28N 37°57' E 023°36'0 0.0
2018-Jul-17 06:00N 37°57' E 023°36'0 0.0
2018-Jul-17 05:12N 37°57' E 023°36'0 0.0
2018-Jul-17 04:57N 37°57' E 023°36'0 0.0
2018-Jul-17 04:30N 37°57' E 023°36'0 0.0
2018-Jul-17 03:41N 37°57' E 023°36'0 0.0
2018-Jul-17 03:29N 37°57' E 023°36'0 0.0
2018-Jul-17 02:53N 37°57' E 023°36'0 0.0
2018-Jul-17 02:29N 37°57' E 023°36'0 0.0
2018-Jul-17 01:59N 37°57' E 023°36'0 0.0
2018-Jul-17 01:28N 37°57' E 023°36'0 0.0
2018-Jul-17 00:58N 37°57' E 023°36'0 0.0
2018-Jul-17 00:28N 37°57' E 023°36'0 0.0
2018-Jul-16 23:28N 37°57' E 023°36'0 0.0
2018-Jul-16 22:48N 37°57' E 023°36'0 0.0
2018-Jul-16 22:30N 37°57' E 023°36'0 0.0
2018-Jul-16 21:57N 37°57' E 023°36'0 0.0
2018-Jul-16 21:27N 37°57' E 023°36'0 0.0
2018-Jul-16 21:00N 37°57' E 023°36'0 0.0
2018-Jul-16 20:29N 37°57' E 023°36'0 0.0
2018-Jul-16 19:59N 37°57' E 023°36'0 0.0
2018-Jul-16 19:29N 37°57' E 023°36'0 0.0
2018-Jul-16 18:59N 37°57' E 023°36'0 0.0
2018-Jul-16 18:28N 37°57' E 023°36'0 0.0
2018-Jul-16 17:58N 37°57' E 023°36'0 0.0
2018-Jul-16 17:28N 37°57' E 023°36'0 0.0
2018-Jul-16 16:58N 37°57' E 023°36'0 0.0
2018-Jul-16 16:28N 37°57' E 023°36'0 0.0
2018-Jul-16 16:00N 37°57' E 023°36'0 0.0
2018-Jul-16 15:30N 37°57' E 023°36'0 0.0
2018-Jul-16 15:00N 37°57' E 023°36'0 0.0
2018-Jul-16 14:30N 37°57' E 023°36'0 0.0
2018-Jul-16 13:56N 37°57' E 023°36'0 0.0
2018-Jul-16 13:29N 37°57' E 023°36'0 0.0
2018-Jul-16 12:59N 37°57' E 023°36'0 0.0
2018-Jul-16 12:30N 37°57' E 023°36'0 0.0
2018-Jul-16 11:59N 37°57' E 023°36'0 0.0
2018-Jul-16 11:30N 37°57' E 023°36'0 0.0
2018-Jul-16 10:58N 37°57' E 023°36'0 0.0
2018-Jul-16 10:31N 37°57' E 023°36'0 0.0
2018-Jul-16 09:58N 37°57' E 023°36'0 0.0
2018-Jul-16 09:28N 37°57' E 023°36'0 0.0
2018-Jul-16 09:00N 37°57' E 023°36'0 0.0
2018-Jul-16 08:30N 37°57' E 023°36'0 0.0
2018-Jul-16 08:00N 37°57' E 023°36'0 0.0
2018-Jul-16 07:30N 37°57' E 023°36'0 0.0
2018-Jul-16 06:59N 37°57' E 023°36'0 0.0
2018-Jul-16 06:29N 37°57' E 023°36'0 0.5
2018-Jul-16 06:00N 37°57' E 023°36'2 4.9
2018-Jul-16 05:31N 37°55' E 023°35'0 0.3
2018-Jul-16 05:00N 37°55' E 023°35'1 2.4
2018-Jul-16 04:31N 37°54' E 023°34'0 0.8
2018-Jul-16 04:01N 37°54' E 023°33'1 2.3
2018-Jul-16 03:31N 37°53' E 023°32'0 0.1
2018-Jul-16 02:59N 37°53' E 023°32'0 0.0
2018-Jul-16 02:31N 37°53' E 023°32'0 0.0
2018-Jul-16 01:58N 37°53' E 023°32'0 0.0
2018-Jul-16 01:28N 37°53' E 023°32'0 0.0
2018-Jul-16 00:58N 37°53' E 023°32'0 0.0
2018-Jul-16 00:28N 37°53' E 023°32'0 0.1
2018-Jul-15 23:57N 37°53' E 023°32'0 0.0
2018-Jul-15 23:30N 37°53' E 023°32'0 0.0
2018-Jul-15 23:00N 37°53' E 023°32'0 0.0
2018-Jul-15 22:30N 37°53' E 023°32'0 0.0
2018-Jul-15 21:59N 37°53' E 023°32'0 0.0
2018-Jul-15 21:29N 37°53' E 023°32'0 0.0
2018-Jul-15 20:59N 37°53' E 023°32'0 0.0
2018-Jul-15 20:29N 37°53' E 023°32'0 0.0
2018-Jul-15 19:59N 37°53' E 023°32'0 0.0
2018-Jul-15 19:28N 37°53' E 023°32'0 0.0
2018-Jul-15 18:58N 37°53' E 023°32'0 0.0
2018-Jul-15 18:28N 37°53' E 023°32'0 0.0
2018-Jul-15 17:58N 37°53' E 023°32'1 1.4
2018-Jul-15 17:30N 37°53' E 023°33'4 8.7
2018-Jul-15 17:00N 37°52' E 023°38'612.7
2018-Jul-15 16:31N 37°46' E 023°42'612.2
2018-Jul-15 16:01N 37°41' E 023°45'612.6
2018-Jul-15 15:31N 37°35' E 023°44'713.9
2018-Jul-15 15:00N 37°28' E 023°42'714.0
2018-Jul-15 14:30N 37°21' E 023°39'713.6
2018-Jul-15 14:00N 37°15' E 023°35'813.2
2018-Jul-15 13:25N 37°09' E 023°30'813.2
2018-Jul-15 12:51N 37°02' E 023°26'413.1
2018-Jul-15 12:30N 36°58' E 023°23'35712.0
2018-Jul-14 06:51N 37°49' E 015°59'1713.3
2018-Jul-14 05:33N 37°54' E 015°38'113.4
2018-Jul-14 05:30N 37°55' E 015°37'712.8
2018-Jul-14 04:56N 38°02' E 015°34'613.3
2018-Jul-14 04:28N 38°08' E 015°35'612.9
2018-Jul-14 03:59N 38°14' E 015°36'612.1
2018-Jul-14 03:30N 38°19' E 015°40'712.9
2018-Jul-14 02:59N 38°25' E 015°37'611.7
2018-Jul-14 02:30N 38°30' E 015°34'612.2
2018-Jul-14 02:00N 38°36' E 015°31'7712.8
2018-Jul-13 20:00N 39°48' E 014°57'713.4
2018-Jul-13 19:30N 39°54' E 014°54'713.5
2018-Jul-13 18:58N 40°01' E 014°50'613.5
2018-Jul-13 18:30N 40°07' E 014°48'713.3
2018-Jul-13 18:00N 40°13' E 014°45'713.1
2018-Jul-13 17:30N 40°20' E 014°44'713.4
2018-Jul-13 17:00N 40°26' E 014°43'713.1
2018-Jul-13 16:30N 40°33' E 014°43'4 0.3
2018-Jul-13 05:03N 40°37' E 014°42'0 5.5
2018-Jul-13 05:00N 40°36' E 014°42'3 5.2
2018-Jul-13 04:30N 40°34' E 014°40'510.2
2018-Jul-13 04:00N 40°32' E 014°34'715.0
2018-Jul-13 03:30N 40°30' E 014°24'815.1
2018-Jul-13 03:00N 40°28' E 014°15'713.9
2018-Jul-13 02:29N 40°30' E 014°06'714.9
2018-Jul-13 02:00N 40°33' E 013°58'815.1
2018-Jul-13 01:30N 40°39' E 013°51'815.2
2018-Jul-13 01:00N 40°44' E 013°43'815.1
2018-Jul-13 00:30N 40°48' E 013°35'814.8
2018-Jul-12 23:59N 40°53' E 013°27'914.8
2018-Jul-12 23:20N 40°58' E 013°16'514.7
2018-Jul-12 23:00N 41°01' E 013°11'914.1
2018-Jul-12 22:22N 41°06' E 013°01'814.5
2018-Jul-12 21:49N 41°11' E 012°53'514.4
2018-Jul-12 21:26N 41°14' E 012°47'814.2
2018-Jul-12 20:52N 41°19' E 012°38'614.2
2018-Jul-12 20:25N 41°22' E 012°31'614.2
2018-Jul-12 19:58N 41°26' E 012°24'814.3
2018-Jul-12 19:23N 41°31' E 012°15'2014.4
2018-Jul-12 17:59N 41°43' E 011°53'5914.6
2018-Jul-12 13:58N 42°17' E 010°49'814.5
2018-Jul-12 13:24N 42°23' E 010°41'614.7
2018-Jul-12 13:01N 42°26' E 010°34'3613.9
2018-Jul-12 10:26N 42°51' E 010°00'714.2
2018-Jul-12 09:59N 42°58' E 009°60'714.3
2018-Jul-12 09:30N 43°04' E 009°59'714.1
2018-Jul-12 09:00N 43°10' E 009°54'714.2
2018-Jul-12 08:30N 43°17' E 009°50'714.2
2018-Jul-12 08:01N 43°23' E 009°45'713.7
2018-Jul-12 07:30N 43°30' E 009°45'714.1
2018-Jul-12 07:00N 43°37' E 009°47'714.2
2018-Jul-12 06:30N 43°44' E 009°48'714.0
2018-Jul-12 06:00N 43°51' E 009°50'713.2
2018-Jul-12 05:30N 43°57' E 009°51'612.9
2018-Jul-12 05:00N 44°04' E 009°52'3 5.3
2018-Jul-12 04:30N 44°06' E 009°51'0 0.0
2018-Jul-12 04:00N 44°06' E 009°51'0 0.0
2018-Jul-12 03:29N 44°06' E 009°51'0 0.0
2018-Jul-12 02:59N 44°06' E 009°51'0 0.0
2018-Jul-12 02:29N 44°06' E 009°51'0 0.0
2018-Jul-12 01:59N 44°06' E 009°51'0 0.0
2018-Jul-12 01:28N 44°06' E 009°51'0 0.0
2018-Jul-12 00:58N 44°06' E 009°51'0 0.0
2018-Jul-12 00:28N 44°06' E 009°51'0 0.0
2018-Jul-11 23:58N 44°06' E 009°51'0 0.0
2018-Jul-11 23:28N 44°06' E 009°51'0 0.0
2018-Jul-11 23:00N 44°06' E 009°51'0 0.0
2018-Jul-11 22:30N 44°06' E 009°51'0 0.0
2018-Jul-11 22:00N 44°06' E 009°51'0 0.0
2018-Jul-11 21:30N 44°06' E 009°51'0 0.0
2018-Jul-11 20:59N 44°06' E 009°51'0 0.0
2018-Jul-11 20:29N 44°06' E 009°51'0 0.0
2018-Jul-11 19:59N 44°06' E 009°51'0 0.0
2018-Jul-11 19:29N 44°06' E 009°51'0 0.0
2018-Jul-11 18:59N 44°06' E 009°51'0 0.0
2018-Jul-11 18:28N 44°06' E 009°51'0 0.0
2018-Jul-11 17:58N 44°06' E 009°51'0 0.0
2018-Jul-11 17:25N 44°06' E 009°51'0 0.0
2018-Jul-11 16:58N 44°06' E 009°51'0 0.0
2018-Jul-11 16:28N 44°06' E 009°51'0 0.0
2018-Jul-11 16:00N 44°06' E 009°51'0 0.0
2018-Jul-11 15:30N 44°06' E 009°51'0 0.0
2018-Jul-11 15:00N 44°06' E 009°51'0 0.0
2018-Jul-11 14:30N 44°06' E 009°51'0 0.0
2018-Jul-11 13:56N 44°06' E 009°51'0 0.0
2018-Jul-11 13:29N 44°06' E 009°51'0 0.0
2018-Jul-11 12:59N 44°06' E 009°51'0 0.0
2018-Jul-11 12:29N 44°06' E 009°51'0 0.0
2018-Jul-11 11:56N 44°06' E 009°51'0 0.0
2018-Jul-11 11:28N 44°06' E 009°51'0 0.0
2018-Jul-11 10:58N 44°06' E 009°51'0 0.0
2018-Jul-11 10:13N 44°06' E 009°51'0 0.0
2018-Jul-11 09:58N 44°06' E 009°51'0 0.1
2018-Jul-11 09:30N 44°06' E 009°51'2 4.8
2018-Jul-11 09:00N 44°04' E 009°51'4 8.3
2018-Jul-11 08:30N 43°60' E 009°53'612.3
2018-Jul-11 08:00N 44°00' E 009°45'713.1
2018-Jul-11 07:30N 44°03' E 009°36'713.1
2018-Jul-11 07:00N 44°06' E 009°29'612.9
2018-Jul-11 06:30N 44°10' E 009°21'612.9
2018-Jul-11 06:00N 44°13' E 009°14'612.7
2018-Jul-11 05:30N 44°16' E 009°06'612.8
2018-Jul-11 05:00N 44°20' E 008°58'5 9.6
2018-Jul-11 04:30N 44°24' E 008°55'1 2.7
2018-Jul-11 03:58N 44°24' E 008°53'0 0.0
2018-Jul-11 03:28N 44°24' E 008°53'0 0.0
2018-Jul-11 02:58N 44°24' E 008°53'0 0.0
2018-Jul-11 02:30N 44°24' E 008°53'0 0.0
2018-Jul-11 02:00N 44°24' E 008°53'0 0.0
2018-Jul-11 01:30N 44°24' E 008°53'0 0.0
2018-Jul-11 01:00N 44°24' E 008°53'0 0.0
2018-Jul-11 00:30N 44°24' E 008°53'0 0.0
2018-Jul-10 23:59N 44°24' E 008°53'0 0.0
2018-Jul-10 23:29N 44°24' E 008°53'0 0.0
2018-Jul-10 22:59N 44°24' E 008°53'0 0.0
2018-Jul-10 22:29N 44°24' E 008°53'0 0.0
2018-Jul-10 21:58N 44°24' E 008°53'0 0.0
2018-Jul-10 21:28N 44°24' E 008°53'0 0.0
2018-Jul-10 20:58N 44°24' E 008°53'0 0.0
2018-Jul-10 20:28N 44°24' E 008°53'0 0.0
2018-Jul-10 19:58N 44°24' E 008°53'0 0.0
2018-Jul-10 19:30N 44°24' E 008°53'0 0.0
2018-Jul-10 19:00N 44°24' E 008°53'0 0.0
2018-Jul-10 18:30N 44°24' E 008°53'0 0.0
2018-Jul-10 18:00N 44°24' E 008°53'0 0.0
2018-Jul-10 17:29N 44°24' E 008°53'0 0.0
2018-Jul-10 16:59N 44°24' E 008°53'0 0.0
2018-Jul-10 16:29N 44°24' E 008°53'0 0.0
2018-Jul-10 15:59N 44°24' E 008°53'0 0.0
2018-Jul-10 15:29N 44°24' E 008°53'0 0.0
2018-Jul-10 14:58N 44°24' E 008°53'0 0.0
2018-Jul-10 14:28N 44°24' E 008°53'0 0.0
2018-Jul-10 13:58N 44°24' E 008°53'0 0.0
2018-Jul-10 13:28N 44°24' E 008°53'0 0.0
2018-Jul-10 12:58N 44°24' E 008°53'0 0.0
2018-Jul-10 12:30N 44°24' E 008°53'0 0.0
2018-Jul-10 12:00N 44°24' E 008°53'  

Dump ship's entire track history